createdAt,value
2022-09-28T00:01:15.414Z,1.42
2022-09-28T00:03:43.884Z,2.55
2022-09-28T00:06:13.480Z,1.88
2022-09-28T00:08:41.644Z,2.28
2022-09-28T00:11:13.728Z,3.15
2022-09-28T00:13:43.885Z,2.95
2022-09-28T00:16:14.716Z,2.45
2022-09-28T00:18:43.579Z,3.53
2022-09-28T00:21:14.043Z,3.65
2022-09-28T00:23:57.275Z,2.33
2022-09-28T00:26:25.966Z,3.00
2022-09-28T00:28:55.899Z,2.38
2022-09-28T00:31:25.071Z,2.05
2022-09-28T00:33:55.226Z,1.30
2022-09-28T00:36:23.186Z,1.27
2022-09-28T00:38:52.233Z,3.60
2022-09-28T00:41:20.202Z,1.73
2022-09-28T00:43:48.140Z,3.60
2022-09-28T00:46:20.750Z,1.20
2022-09-28T00:48:55.986Z,1.27
2022-09-28T00:51:26.657Z,4.32
2022-09-28T00:53:56.681Z,1.80
2022-09-28T00:56:28.509Z,2.65
2022-09-28T00:58:57.164Z,1.30
2022-09-28T01:01:27.430Z,0.87
2022-09-28T01:03:55.500Z,1.10
2022-09-28T01:06:27.518Z,1.98
2022-09-28T01:08:59.309Z,1.55
2022-09-28T01:11:28.784Z,1.55
2022-09-28T01:13:58.526Z,2.42
2022-09-28T01:16:33.722Z,1.85
2022-09-28T01:19:13.224Z,3.80
2022-09-28T01:24:37.291Z,3.03
2022-09-28T01:27:13.784Z,3.58
2022-09-28T01:29:52.802Z,2.30
2022-09-28T01:32:37.304Z,2.42
2022-09-28T01:35:10.382Z,2.47
2022-09-28T01:37:45.304Z,2.97
2022-09-28T01:40:14.799Z,1.77
2022-09-28T01:45:21.677Z,3.90
2022-09-28T01:47:51.743Z,3.22
2022-09-28T01:50:23.673Z,4.32
2022-09-28T01:52:55.703Z,2.80
2022-09-28T01:55:30.765Z,1.95
2022-09-28T01:58:05.818Z,1.20
2022-09-28T02:00:37.056Z,2.03
2022-09-28T02:03:11.038Z,2.25
2022-09-28T02:05:41.998Z,1.48
2022-09-28T02:08:14.312Z,0.95
2022-09-28T02:10:45.185Z,1.95
2022-09-28T02:13:19.663Z,1.80
2022-09-28T02:15:52.699Z,0.82
2022-09-28T02:18:20.783Z,0.95
2022-09-28T02:20:56.902Z,1.00
2022-09-28T02:23:27.569Z,0.60
2022-09-28T02:26:02.314Z,1.27
2022-09-28T02:28:31.788Z,1.58
2022-09-28T02:33:32.118Z,1.67
2022-09-28T02:36:01.681Z,1.27
2022-09-28T02:41:05.831Z,1.00
2022-09-28T02:43:49.939Z,0.70
2022-09-28T02:46:28.577Z,0.95
2022-09-28T02:49:21.429Z,2.63
2022-09-28T02:52:02.931Z,0.55
2022-09-28T02:55:14.331Z,0.55
2022-09-28T02:57:54.911Z,0.73
2022-09-28T03:00:25.477Z,0.40
2022-09-28T03:03:02.019Z,0.30
2022-09-28T03:05:39.534Z,0.30
2022-09-28T03:08:14.990Z,0.60
2022-09-28T03:10:47.702Z,1.17
2022-09-28T03:13:17.366Z,2.38
2022-09-28T03:15:49.023Z,0.98
2022-09-28T03:18:17.337Z,1.10
2022-09-28T03:20:45.544Z,3.33
2022-09-28T03:23:24.241Z,0.65
2022-09-28T03:25:53.027Z,0.70
2022-09-28T03:28:21.924Z,0.80
2022-09-28T03:30:51.590Z,1.60
2022-09-28T03:33:19.985Z,0.57
2022-09-28T03:35:49.003Z,0.85
2022-09-28T03:38:16.997Z,1.00
2022-09-28T03:40:45.454Z,1.48
2022-09-28T03:43:13.831Z,2.75
2022-09-28T03:45:41.902Z,1.65
2022-09-28T03:48:11.296Z,1.23
2022-09-28T03:50:39.294Z,0.70
2022-09-28T03:53:07.241Z,4.13
2022-09-28T03:55:35.230Z,3.20
2022-09-28T03:58:03.219Z,0.47
2022-09-28T04:00:31.225Z,2.65
2022-09-28T04:02:59.171Z,2.45
2022-09-28T04:05:28.445Z,3.70
2022-09-28T04:07:57.818Z,3.60
2022-09-28T04:10:25.980Z,2.30
2022-09-28T04:12:55.983Z,3.10
2022-09-28T04:15:24.310Z,1.45
2022-09-28T04:17:52.752Z,4.20
2022-09-28T04:20:20.954Z,11.25
2022-09-28T04:22:50.346Z,7.90
2022-09-28T04:25:18.430Z,10.57
2022-09-28T04:28:04.099Z,8.18
2022-09-28T04:30:32.104Z,4.18
2022-09-28T04:33:00.030Z,1.83
2022-09-28T04:35:27.975Z,0.50
2022-09-28T04:37:57.323Z,0.70
2022-09-28T04:40:25.525Z,1.30
2022-09-28T04:42:57.019Z,9.27
2022-09-28T04:45:26.195Z,7.13
2022-09-28T04:47:54.568Z,5.80
2022-09-28T04:50:22.586Z,2.17
2022-09-28T04:52:50.542Z,1.75
2022-09-28T04:55:20.593Z,0.98
2022-09-28T04:57:48.585Z,0.88
2022-09-28T05:00:17.218Z,0.60
2022-09-28T05:02:45.445Z,3.00
2022-09-28T05:05:13.534Z,1.95
2022-09-28T05:07:41.856Z,3.80
2022-09-28T05:10:10.051Z,1.75
2022-09-28T05:12:39.409Z,2.50
2022-09-28T05:15:07.932Z,1.40
2022-09-28T05:17:35.904Z,1.73
2022-09-28T05:20:04.170Z,1.63
2022-09-28T05:22:32.142Z,2.00
2022-09-28T05:25:00.337Z,1.00
2022-09-28T05:27:28.331Z,1.52
2022-09-28T05:29:57.603Z,4.80
2022-09-28T05:32:25.554Z,8.63
2022-09-28T05:34:55.622Z,4.50
2022-09-28T05:37:23.603Z,10.52
2022-09-28T05:39:51.534Z,3.38
2022-09-28T05:42:19.573Z,2.60
2022-09-28T05:44:47.514Z,3.08
2022-09-28T05:47:16.979Z,3.15
2022-09-28T05:49:44.927Z,3.85
2022-09-28T05:52:12.928Z,4.15
2022-09-28T05:54:40.864Z,1.55
2022-09-28T05:57:08.886Z,3.67
2022-09-28T05:59:36.861Z,2.17
2022-09-28T06:02:06.341Z,3.30
2022-09-28T06:07:03.453Z,1.85
2022-09-28T06:09:31.950Z,2.70
2022-09-28T06:12:00.393Z,6.53
2022-09-28T06:14:28.373Z,1.80
2022-09-28T06:16:56.382Z,1.95
2022-09-28T06:19:24.388Z,4.80
2022-09-28T06:21:53.656Z,1.90
2022-09-28T06:24:21.656Z,2.25
2022-09-28T06:26:49.571Z,4.95
2022-09-28T06:29:19.723Z,4.05
2022-09-28T06:31:48.455Z,8.00
2022-09-28T06:34:17.231Z,6.30
2022-09-28T06:36:45.441Z,14.82
2022-09-28T06:39:14.786Z,10.55
2022-09-28T06:41:42.824Z,14.98
2022-09-28T06:44:11.011Z,25.20
2022-09-28T06:46:39.313Z,15.50
2022-09-28T06:49:09.168Z,6.38
2022-09-28T06:51:37.766Z,4.88
2022-09-28T06:54:05.846Z,3.13
2022-09-28T06:56:35.155Z,5.72
2022-09-28T06:59:03.102Z,1.85
2022-09-28T07:01:31.147Z,3.80
2022-09-28T07:04:01.764Z,5.60
2022-09-28T07:06:31.452Z,4.10
2022-09-28T07:09:19.616Z,5.05
2022-09-28T07:11:52.631Z,3.15
2022-09-28T07:14:41.906Z,7.95
2022-09-28T07:19:42.519Z,3.63
2022-09-28T07:22:18.437Z,7.15
2022-09-28T07:24:47.384Z,1.60
2022-09-28T07:27:16.769Z,8.52
2022-09-28T07:29:44.744Z,7.38
2022-09-28T07:32:12.717Z,7.25
2022-09-28T07:34:43.694Z,4.90
2022-09-28T07:37:12.418Z,3.35
2022-09-28T07:39:54.452Z,3.63
2022-09-28T07:42:23.899Z,4.57
2022-09-28T07:44:52.137Z,3.35
2022-09-28T07:47:29.623Z,2.95
2022-09-28T07:50:00.652Z,6.22
2022-09-28T07:52:28.820Z,2.92
2022-09-28T07:54:56.988Z,5.90
2022-09-28T07:57:26.325Z,5.63
2022-09-28T07:59:54.570Z,3.58
2022-09-28T08:02:23.101Z,4.85
2022-09-28T08:04:51.504Z,4.33
2022-09-28T08:07:23.640Z,3.33
2022-09-28T08:09:52.197Z,1.85
2022-09-28T08:12:21.123Z,2.25
2022-09-28T08:14:52.141Z,2.30
2022-09-28T08:17:20.174Z,1.77
2022-09-28T08:20:05.992Z,4.35
2022-09-28T08:22:33.971Z,3.15
2022-09-28T08:25:01.929Z,3.20
2022-09-28T08:27:29.871Z,1.40
2022-09-28T08:29:59.182Z,1.75
2022-09-28T08:32:27.115Z,3.53
2022-09-28T08:34:55.978Z,1.05
2022-09-28T08:37:23.938Z,2.05
2022-09-28T08:39:51.899Z,1.33
2022-09-28T08:42:34.521Z,2.55
2022-09-28T08:45:10.311Z,4.28
2022-09-28T08:48:06.578Z,3.67
2022-09-28T08:50:37.978Z,5.57
2022-09-28T08:53:21.753Z,8.40
2022-09-28T08:55:50.820Z,3.00
2022-09-28T08:58:23.195Z,3.35
2022-09-28T09:00:54.301Z,1.90
2022-09-28T09:03:29.096Z,1.13
2022-09-28T09:06:05.042Z,3.90
2022-09-28T09:08:50.023Z,4.82
2022-09-28T09:11:30.769Z,3.38
2022-09-28T09:14:15.863Z,5.18
2022-09-28T09:17:00.318Z,8.23
2022-09-28T09:19:36.266Z,3.80
2022-09-28T09:22:16.924Z,2.92
2022-09-28T09:24:50.971Z,3.42
2022-09-28T09:27:44.676Z,1.38
2022-09-28T09:30:18.528Z,3.08
2022-09-28T09:33:31.568Z,2.25
2022-09-28T09:36:19.838Z,1.02
2022-09-28T09:38:58.023Z,1.38
2022-09-28T09:41:36.041Z,2.03
2022-09-28T09:44:15.884Z,3.00
2022-09-28T09:46:49.166Z,1.88
2022-09-28T09:49:22.728Z,1.88
2022-09-28T09:51:58.131Z,2.08
2022-09-28T09:54:31.127Z,1.20
2022-09-28T09:57:04.301Z,3.75
2022-09-28T09:59:36.065Z,1.55
2022-09-28T10:02:13.579Z,1.17
2022-09-28T10:04:46.816Z,0.60
2022-09-28T10:07:22.391Z,1.98
2022-09-28T10:09:51.785Z,2.03
2022-09-28T10:12:22.666Z,3.65
2022-09-28T10:14:50.805Z,2.38
2022-09-28T10:17:26.716Z,1.85
2022-09-28T10:19:56.958Z,2.38
2022-09-28T10:22:28.168Z,1.08
2022-09-28T10:24:57.412Z,3.65
2022-09-28T10:27:29.030Z,1.20
2022-09-28T10:30:00.733Z,1.23
2022-09-28T10:32:37.573Z,2.10
2022-09-28T10:35:26.851Z,2.10
2022-09-28T10:37:59.220Z,1.65
2022-09-28T10:40:43.797Z,2.50
2022-09-28T10:43:22.808Z,1.90
2022-09-28T10:46:01.694Z,1.70
2022-09-28T10:48:38.035Z,3.78
2022-09-28T10:51:08.739Z,3.13
2022-09-28T10:53:39.909Z,4.38
2022-09-28T10:56:19.139Z,6.90
2022-09-28T10:58:47.188Z,8.70
2022-09-28T11:01:19.572Z,5.95
2022-09-28T11:03:56.014Z,7.88
2022-09-28T11:06:28.136Z,3.55
2022-09-28T11:08:58.516Z,1.35
2022-09-28T11:11:28.654Z,0.60
2022-09-28T11:14:01.049Z,1.58
2022-09-28T11:16:30.851Z,2.00
2022-09-28T11:19:00.124Z,2.83
2022-09-28T11:21:32.486Z,1.02
2022-09-28T11:24:08.377Z,1.02
2022-09-28T11:26:40.718Z,2.40
2022-09-28T11:29:21.197Z,1.50
2022-09-28T11:31:49.437Z,1.55
2022-09-28T11:34:31.524Z,1.90
2022-09-28T11:37:33.697Z,4.63
2022-09-28T11:40:16.560Z,0.65
2022-09-28T11:42:53.449Z,1.58
2022-09-28T11:45:36.089Z,1.65
2022-09-28T11:48:07.091Z,1.77
2022-09-28T11:50:43.630Z,0.70
2022-09-28T11:53:23.996Z,0.57
2022-09-28T11:55:57.259Z,0.82
2022-09-28T11:58:30.936Z,2.05
2022-09-28T12:01:05.018Z,2.88
2022-09-28T12:03:40.739Z,1.23
2022-09-28T12:06:13.684Z,1.10
2022-09-28T12:08:46.784Z,1.85
2022-09-28T12:11:19.212Z,1.52
2022-09-28T12:13:48.984Z,1.27
2022-09-28T12:16:46.856Z,0.90
2022-09-28T12:19:18.007Z,1.25
2022-09-28T12:21:51.198Z,0.55
2022-09-28T12:24:26.073Z,1.70
2022-09-28T12:26:57.890Z,1.33
2022-09-28T12:29:32.801Z,2.17
2022-09-28T12:32:10.526Z,1.08
2022-09-28T12:34:38.509Z,1.20
2022-09-28T12:37:21.772Z,1.15
2022-09-28T12:40:08.095Z,1.92
2022-09-28T12:43:00.113Z,1.95
2022-09-28T12:46:09.933Z,1.85
2022-09-28T12:49:36.722Z,2.88
2022-09-28T12:51:52.403Z,1.42
2022-09-28T12:54:39.870Z,0.60
2022-09-28T12:57:26.966Z,1.25
2022-09-28T13:00:03.288Z,0.95
2022-09-28T13:03:11.130Z,0.90
2022-09-28T13:06:09.525Z,0.50
2022-09-28T13:08:46.673Z,0.50
2022-09-28T13:11:24.137Z,0.55
2022-09-28T13:14:03.225Z,0.65
2022-09-28T13:16:38.848Z,0.30
2022-09-28T13:19:16.848Z,2.22
2022-09-28T13:21:52.212Z,0.52
2022-09-28T13:24:33.879Z,1.25
2022-09-28T13:27:07.849Z,1.70
2022-09-28T13:32:12.840Z,0.73
2022-09-28T13:34:41.176Z,0.50
2022-09-28T13:37:21.508Z,0.50
2022-09-28T13:39:52.693Z,2.30
2022-09-28T13:42:37.544Z,1.42
2022-09-28T13:45:32.307Z,2.35
2022-09-28T13:48:12.539Z,1.20
2022-09-28T13:51:05.300Z,1.75
2022-09-28T13:53:48.205Z,3.42
2022-09-28T13:56:28.207Z,1.92
2022-09-28T13:59:02.000Z,1.73
2022-09-28T14:01:38.589Z,1.85
2022-09-28T14:04:17.500Z,1.75
2022-09-28T14:06:55.645Z,5.85
2022-09-28T14:09:45.481Z,2.17
2022-09-28T14:12:45.570Z,1.95
2022-09-28T14:15:43.659Z,2.13
2022-09-28T14:18:28.934Z,1.48
2022-09-28T14:21:30.493Z,0.70
2022-09-28T14:24:09.844Z,0.77
2022-09-28T14:27:06.873Z,1.40
2022-09-28T14:29:37.777Z,1.52
2022-09-28T14:32:22.815Z,1.67
2022-09-28T14:34:59.400Z,0.75
2022-09-28T14:37:48.909Z,2.33
2022-09-28T14:43:26.726Z,2.13
2022-09-28T14:46:29.143Z,2.17
2022-09-28T14:48:58.331Z,2.53
2022-09-28T14:52:07.420Z,1.95
2022-09-28T14:54:54.979Z,1.10
2022-09-28T14:57:27.090Z,1.30
2022-09-28T14:59:59.482Z,2.35
2022-09-28T15:02:32.364Z,1.58
2022-09-28T15:05:10.831Z,1.75
2022-09-28T15:07:49.433Z,1.77
2022-09-28T15:10:27.884Z,1.83
2022-09-28T15:12:57.605Z,1.00
2022-09-28T15:18:05.476Z,2.28
2022-09-28T15:20:37.980Z,4.25
2022-09-28T15:23:27.053Z,2.10
2022-09-28T15:25:56.597Z,3.05
2022-09-28T15:30:59.678Z,1.58
2022-09-28T15:33:46.991Z,2.42
2022-09-28T15:36:19.319Z,2.53
2022-09-28T15:38:57.247Z,3.45
2022-09-28T15:41:26.595Z,2.47
2022-09-28T15:44:08.395Z,1.55
2022-09-28T15:46:38.557Z,2.50
2022-09-28T15:49:08.322Z,2.72
2022-09-28T15:51:49.104Z,2.38
2022-09-28T15:54:24.795Z,2.53
2022-09-28T15:56:54.941Z,3.10
2022-09-28T15:59:31.710Z,4.10
2022-09-28T16:02:13.316Z,3.90
2022-09-28T16:04:48.076Z,3.38
2022-09-28T16:07:22.047Z,2.63
2022-09-28T16:10:04.658Z,2.40
2022-09-28T16:12:43.249Z,5.63
2022-09-28T16:15:20.354Z,3.23
2022-09-28T16:17:54.869Z,6.60
2022-09-28T16:20:29.819Z,5.70
2022-09-28T16:23:05.570Z,3.47
2022-09-28T16:25:39.383Z,2.40
2022-09-28T16:28:08.990Z,3.63
2022-09-28T16:33:06.740Z,2.80
2022-09-28T16:35:51.214Z,4.90
2022-09-28T16:38:20.587Z,3.78
2022-09-28T16:40:53.677Z,6.63
2022-09-28T16:43:26.676Z,4.70
2022-09-28T16:45:56.636Z,4.32
2022-09-28T16:48:27.032Z,3.88
2022-09-28T16:50:55.063Z,2.53
2022-09-28T16:53:46.288Z,3.40
2022-09-28T16:56:15.681Z,3.88
2022-09-28T16:58:44.137Z,3.08
2022-09-28T17:01:13.414Z,3.72
2022-09-28T17:03:46.565Z,1.88
2022-09-28T17:06:16.293Z,1.55
2022-09-28T17:08:45.002Z,2.22
2022-09-28T17:11:22.765Z,0.98
2022-09-28T17:13:51.996Z,1.42
2022-09-28T17:16:42.620Z,3.10
2022-09-28T17:19:20.083Z,3.70
2022-09-28T17:21:48.743Z,5.75
2022-09-28T17:24:17.399Z,7.82
2022-09-28T17:26:47.738Z,11.93
2022-09-28T17:29:16.868Z,7.40
2022-09-28T17:31:46.689Z,4.65
2022-09-28T17:34:16.507Z,6.88
2022-09-28T17:36:45.764Z,8.75
2022-09-28T17:39:14.649Z,10.88
2022-09-28T17:41:42.663Z,12.65
2022-09-28T17:44:14.662Z,12.48
2022-09-28T17:46:46.302Z,18.60
2022-09-28T17:49:14.843Z,13.25
2022-09-28T17:51:43.075Z,19.92
2022-09-28T17:54:12.876Z,15.15
2022-09-28T17:56:42.372Z,14.45
2022-09-28T18:01:41.891Z,6.65
2022-09-28T18:04:33.178Z,6.53
2022-09-28T18:07:03.092Z,6.03
2022-09-28T18:09:31.315Z,4.78
2022-09-28T18:12:01.269Z,6.70
2022-09-28T18:14:30.638Z,5.32
2022-09-28T18:16:58.628Z,5.10
2022-09-28T18:19:31.757Z,5.25
2022-09-28T18:22:01.237Z,4.80
2022-09-28T18:24:29.367Z,7.88
2022-09-28T18:26:57.383Z,6.18
2022-09-28T18:29:28.015Z,4.32
2022-09-28T18:31:59.611Z,7.95
2022-09-28T18:34:27.609Z,8.85
2022-09-28T18:36:55.569Z,13.57
2022-09-28T18:39:24.225Z,11.80
2022-09-28T18:41:52.250Z,12.83
2022-09-28T18:44:20.289Z,11.52
2022-09-28T18:46:48.572Z,10.07
2022-09-28T18:49:17.968Z,8.10
2022-09-28T18:51:45.896Z,9.27
2022-09-28T18:54:14.123Z,8.27
2022-09-28T18:56:42.164Z,11.25
2022-09-28T18:59:12.570Z,10.43
2022-09-28T19:01:41.587Z,11.50
2022-09-28T19:04:11.742Z,9.95
2022-09-28T19:06:42.432Z,6.43
2022-09-28T19:09:10.621Z,7.63
2022-09-28T19:11:38.913Z,5.88
2022-09-28T19:14:06.924Z,6.38
2022-09-28T19:16:34.931Z,7.03
2022-09-28T19:19:03.226Z,6.65
2022-09-28T19:21:31.870Z,6.68
2022-09-28T19:24:04.309Z,5.70
2022-09-28T19:26:33.442Z,6.00
2022-09-28T19:29:02.827Z,4.40
2022-09-28T19:31:31.274Z,4.22
2022-09-28T19:33:59.944Z,4.40
2022-09-28T19:36:28.477Z,3.40
2022-09-28T19:38:57.980Z,4.00
2022-09-28T19:41:49.458Z,5.25
2022-09-28T19:44:24.765Z,6.10
2022-09-28T19:46:54.498Z,4.15
2022-09-28T19:49:23.802Z,6.50
2022-09-28T19:52:13.859Z,4.78
2022-09-28T19:54:44.869Z,11.98
2022-09-28T19:57:15.835Z,5.10
2022-09-28T19:59:44.476Z,5.30
2022-09-28T20:02:14.032Z,4.35
2022-09-28T20:07:09.810Z,5.40
2022-09-28T20:09:37.806Z,6.20
2022-09-28T20:12:05.933Z,3.95
2022-09-28T20:14:38.304Z,5.05
2022-09-28T20:17:08.696Z,7.53
2022-09-28T20:19:36.663Z,4.32
2022-09-28T20:22:04.978Z,4.38
2022-09-28T20:24:33.559Z,4.65
2022-09-28T20:27:02.387Z,5.07
2022-09-28T20:29:31.564Z,5.57
2022-09-28T20:32:01.158Z,7.53
2022-09-28T20:34:29.115Z,6.28
2022-09-28T20:36:57.047Z,5.22
2022-09-28T20:39:24.999Z,5.88
2022-09-28T20:41:53.529Z,4.88
2022-09-28T20:44:21.650Z,6.00
2022-09-28T20:46:51.230Z,5.35
2022-09-28T20:51:48.516Z,4.30
2022-09-28T20:54:16.595Z,4.65
2022-09-28T20:56:44.770Z,5.80
2022-09-28T20:59:13.528Z,5.18
2022-09-28T21:01:41.876Z,6.25
2022-09-28T21:04:11.310Z,5.70
2022-09-28T21:06:42.536Z,4.50
2022-09-28T21:09:12.200Z,3.47
2022-09-28T21:11:40.268Z,3.00
2022-09-28T21:14:09.549Z,5.25
2022-09-28T21:16:37.951Z,3.80
2022-09-28T21:19:06.130Z,5.88
2022-09-28T21:21:34.369Z,3.22
2022-09-28T21:24:03.872Z,3.85
2022-09-28T21:29:01.818Z,4.32
2022-09-28T21:31:32.426Z,3.58
2022-09-28T21:34:00.787Z,4.10
2022-09-28T21:36:28.740Z,5.55
2022-09-28T21:38:56.747Z,4.68
2022-09-28T21:41:26.638Z,4.70
2022-09-28T21:43:54.624Z,3.45
2022-09-28T21:46:22.796Z,4.43
2022-09-28T21:48:53.662Z,7.13
2022-09-28T21:51:22.058Z,14.48
2022-09-28T21:53:50.273Z,12.77
2022-09-28T21:56:18.489Z,11.93
2022-09-28T21:58:48.287Z,11.05
2022-09-28T22:01:18.106Z,11.82
2022-09-28T22:03:47.884Z,7.50
2022-09-28T22:06:17.003Z,8.25
2022-09-28T22:08:45.216Z,7.25
2022-09-28T22:11:15.341Z,8.05
2022-09-28T22:13:44.899Z,7.47
2022-09-28T22:18:43.601Z,6.30
2022-09-28T22:21:14.830Z,5.65
2022-09-28T22:23:43.306Z,4.50
2022-09-28T22:26:13.831Z,4.97
2022-09-28T22:28:47.311Z,7.50
2022-09-28T22:31:17.237Z,3.95
2022-09-28T22:33:45.533Z,12.85
2022-09-28T22:36:14.934Z,13.15
2022-09-28T22:38:43.331Z,6.70
2022-09-28T22:41:11.776Z,4.00
2022-09-28T22:43:39.828Z,6.28
2022-09-28T22:46:09.695Z,3.60
2022-09-28T22:48:39.303Z,4.28
2022-09-28T22:53:36.227Z,3.50
2022-09-28T22:56:05.893Z,4.07
2022-09-28T22:58:34.305Z,3.20
2022-09-28T23:01:07.505Z,4.05
2022-09-28T23:03:35.867Z,3.53
2022-09-28T23:06:05.295Z,4.68
2022-09-28T23:08:34.459Z,4.35
2022-09-28T23:11:02.802Z,4.38
2022-09-28T23:13:31.381Z,4.80
2022-09-28T23:16:00.934Z,5.40
2022-09-28T23:20:59.364Z,4.72
2022-09-28T23:23:29.416Z,4.13
2022-09-28T23:25:57.636Z,4.82
2022-09-28T23:28:27.094Z,8.30
2022-09-28T23:30:55.476Z,6.53
2022-09-28T23:33:23.668Z,9.68
2022-09-28T23:35:51.695Z,7.20
2022-09-28T23:38:19.711Z,5.60
2022-09-28T23:40:49.271Z,15.63
2022-09-28T23:45:45.462Z,10.77
2022-09-28T23:48:15.099Z,6.57
2022-09-28T23:50:43.393Z,3.65
2022-09-28T23:53:11.886Z,2.88
2022-09-28T23:55:39.943Z,4.82
2022-09-28T23:58:09.528Z,4.95
